Time;durP1;ratioP1;P1;durP2;ratioP2;P2;SDS_P1;SDS_P2;PMS_P1;PMS_P2;Temp;Humidity;BMP_temperature;BMP_pressure;BME280_temperature;BME280_humidity;BME280_pressure;Samples;Min_cycle;Max_cycle;Signal;HPM_P1;HPM_P2
2021/09/20 00:02:24;;;;;;;2.90;2.70;;;;;;;12.56;62.14;99294.44;5088093;28;20270;-81
2021/09/20 00:05:08;;;;;;;2.80;2.60;;;;;;;12.57;61.88;99304.16;5095707;23;20228;-80
2021/09/20 00:08:01;;;;;;;3.30;3.00;;;;;;;12.59;62.19;99297.50;4991466;28;20275;-80
2021/09/20 00:10:50;;;;;;;3.37;3.07;;;;;;;12.53;62.33;99308.38;4988503;28;20220;-81
2021/09/20 00:13:43;;;;;;;3.40;3.10;;;;;;;12.53;62.31;99311.06;4989111;28;20181;-81
2021/09/20 00:16:30;;;;;;;4.30;3.23;;;;;;;12.53;62.20;99301.13;4988582;28;20228;-81
2021/09/20 00:19:09;;;;;;;3.87;3.43;;;;;;;12.44;62.55;99297.19;5002694;28;20295;-81
2021/09/20 00:21:58;;;;;;;4.03;3.57;;;;;;;12.43;62.87;99300.94;4987679;28;20220;-81
2021/09/20 00:25:08;;;;;;;3.40;3.10;;;;;;;12.55;62.69;99311.66;5020924;23;20249;-80
2021/09/20 00:27:58;;;;;;;3.30;3.00;;;;;;;12.33;63.35;99306.91;5044211;28;20217;-80
2021/09/20 00:30:41;;;;;;;4.20;3.30;;;;;;;12.33;63.89;99306.91;5031856;22;20231;-81
2021/09/20 00:33:37;;;;;;;3.63;3.33;;;;;;;12.11;64.44;99315.84;5007515;28;20231;-81
2021/09/20 00:36:25;;;;;;;3.53;3.30;;;;;;;12.26;64.50;99326.94;5008047;28;20262;-80
2021/09/20 00:39:13;;;;;;;3.77;3.47;;;;;;;12.18;65.10;99301.25;5007173;28;20223;-80
2021/09/20 00:42:01;;;;;;;3.70;3.40;;;;;;;12.21;64.99;99290.03;5007516;28;20259;-80
2021/09/20 00:44:49;;;;;;;4.03;3.63;;;;;;;12.24;64.96;99302.16;5020179;23;20227;-81
2021/09/20 00:47:42;;;;;;;4.33;3.93;;;;;;;12.22;65.34;99315.03;5012853;28;20219;-80
2021/09/20 00:50:34;;;;;;;4.63;3.63;;;;;;;12.12;65.07;99320.19;5024887;28;20241;-81
2021/09/20 00:53:29;;;;;;;4.40;4.00;;;;;;;12.10;65.60;99323.09;5037423;23;20227;-80
2021/09/20 00:56:09;;;;;;;4.73;3.90;;;;;;;12.12;65.78;99323.69;5045631;28;20233;-80
2021/09/20 00:59:08;;;;;;;4.20;3.80;;;;;;;12.12;65.15;99314.81;5046002;28;20194;-81
2021/09/20 01:01:52;;;;;;;3.83;3.53;;;;;;;12.16;65.23;99310.59;5046668;28;20238;-80
2021/09/20 01:04:31;;;;;;;4.57;3.50;;;;;;;12.23;64.66;99297.84;5047032;28;20558;-80
2021/09/20 01:07:13;;;;;;;4.23;3.87;;;;;;;12.23;64.54;99281.72;5044737;28;20645;-81
2021/09/20 01:09:53;;;;;;;3.80;3.50;;;;;;;12.12;65.36;99283.41;4502116;23;15405248;-81
2021/09/20 01:12:39;;;;;;;4.40;4.10;;;;;;;12.12;65.49;99290.66;5027409;28;20194;-81
2021/09/20 01:15:27;;;;;;;3.77;3.47;;;;;;;12.12;65.26;99298.69;5017520;28;20227;-80
2021/09/20 01:18:15;;;;;;;4.10;3.80;;;;;;;12.04;65.47;99281.06;5003659;28;20219;-81
2021/09/20 01:20:58;;;;;;;6.23;3.70;;;;;;;12.17;65.43;99280.00;4976359;28;20215;-80
2021/09/20 01:23:34;;;;;;;4.17;3.73;;;;;;;12.18;64.68;99268.19;5007493;28;20195;-81
2021/09/20 01:26:22;;;;;;;5.07;3.90;;;;;;;12.18;64.32;99276.25;5007171;28;20235;-81
2021/09/20 01:29:09;;;;;;;4.20;3.80;;;;;;;12.08;64.88;99287.63;4992581;28;20231;-81
2021/09/20 01:31:57;;;;;;;4.60;3.63;;;;;;;12.19;64.61;99288.63;5007616;28;20231;-81
2021/09/20 01:34:46;;;;;;;4.47;3.67;;;;;;;12.22;64.47;99286.31;5007001;28;20234;-81
2021/09/20 01:37:31;;;;;;;3.60;3.30;;;;;;;12.00;64.48;99274.53;5039754;22;20262;-81
2021/09/20 01:40:35;;;;;;;3.90;3.60;;;;;;;12.18;64.01;99293.19;5026479;28;20629;-81
2021/09/20 01:43:13;;;;;;;4.27;3.87;;;;;;;12.13;64.12;99292.28;5026025;28;20210;-81
2021/09/20 01:46:09;;;;;;;4.37;3.63;;;;;;;12.21;63.75;99294.59;5026381;28;20233;-81
2021/09/20 01:48:56;;;;;;;3.77;3.50;;;;;;;12.25;63.82;99293.88;5027283;28;20202;-81
2021/09/20 01:52:10;;;;;;;5.07;3.83;;;;;;;12.14;63.92;99301.94;5025648;28;20245;-81
2021/09/20 01:54:56;;;;;;;3.80;3.50;;;;;;;12.11;64.00;99300.56;5027210;28;20198;-80
2021/09/20 01:57:32;;;;;;;4.70;4.10;;;;;;;12.04;64.14;99302.56;5027188;28;20262;-80
2021/09/20 02:00:19;;;;;;;4.20;3.80;;;;;;;12.00;64.68;99304.09;5026854;28;20210;-80
2021/09/20 02:03:05;;;;;;;4.00;3.63;;;;;;;11.88;64.97;99296.06;5025915;28;20254;-81
2021/09/20 02:05:50;;;;;;;4.47;4.07;;;;;;;11.83;64.88;99295.13;5027055;28;20280;-79
2021/09/20 02:08:26;;;;;;;4.47;4.07;;;;;;;11.78;65.51;99290.47;5026585;28;20258;-80
2021/09/20 02:11:03;;;;;;;4.17;3.80;;;;;;;11.80;65.40;99287.56;5025835;28;20219;-80
2021/09/20 02:13:52;;;;;;;4.50;4.10;;;;;;;11.68;65.81;99271.44;5011852;28;20313;-80
2021/09/20 02:16:28;;;;;;;4.30;4.00;;;;;;;11.57;65.90;99277.59;5008595;28;20260;-80
2021/09/20 02:19:15;;;;;;;4.53;4.20;;;;;;;11.53;66.27;99278.31;5026241;28;20603;-81
2021/09/20 02:22:03;;;;;;;5.30;4.67;;;;;;;11.52;66.18;99287.44;5026443;28;20245;-81
2021/09/20 02:24:39;;;;;;;4.40;4.00;;;;;;;11.38;66.36;99287.63;5020853;28;20215;-80
2021/09/20 02:27:18;;;;;;;5.00;4.10;;;;;;;11.36;66.51;99295.13;5006713;28;20218;-81
2021/09/20 02:29:58;;;;;;;5.53;4.70;;;;;;;11.12;67.12;99284.59;5005989;28;20218;-80
2021/09/20 02:32:34;;;;;;;4.57;4.17;;;;;;;11.26;66.95;99296.75;5005739;28;20230;-80
2021/09/20 02:35:11;;;;;;;3.87;3.57;;;;;;;11.18;66.76;99299.78;5007749;28;20187;-80
2021/09/20 02:37:45;;;;;;;4.57;4.07;;;;;;;11.09;66.99;99293.94;5006072;28;20298;-81
2021/09/20 02:40:23;;;;;;;4.40;4.00;;;;;;;11.11;66.95;99302.53;5006951;28;20215;-81
2021/09/20 02:43:06;;;;;;;4.40;4.00;;;;;;;11.08;67.36;99310.25;5006337;28;20227;-80
2021/09/20 02:45:51;;;;;;;4.27;3.93;;;;;;;10.99;67.42;99309.75;5010244;23;20231;-80
2021/09/20 02:48:26;;;;;;;4.50;4.07;;;;;;;11.03;67.58;99314.44;4993810;28;20303;-80
2021/09/20 02:51:04;;;;;;;4.70;4.30;;;;;;;10.94;67.82;99313.13;5030254;28;20221;-80
2021/09/20 02:53:40;;;;;;;5.17;4.67;;;;;;;10.97;68.03;99309.16;5028280;23;20241;-80
2021/09/20 02:56:24;;;;;;;5.50;4.70;;;;;;;10.95;67.71;99308.59;5030219;28;20215;-81
2021/09/20 02:59:00;;;;;;;5.07;4.57;;;;;;;10.93;68.38;99324.88;5028428;28;20234;-80
2021/09/20 03:01:47;;;;;;;5.00;4.60;;;;;;;10.95;68.13;99330.03;5030010;28;20242;-80
2021/09/20 03:04:34;;;;;;;5.13;4.47;;;;;;;10.99;68.00;99331.19;5031455;28;20210;-80
2021/09/20 03:07:20;;;;;;;3.80;3.50;;;;;;;10.97;67.53;99339.47;5027003;28;20581;-80
2021/09/20 03:09:58;;;;;;;4.10;3.80;;;;;;;11.07;67.59;99330.88;5030491;28;20238;-81
2021/09/20 03:12:40;;;;;;;4.50;4.10;;;;;;;11.02;67.66;99336.91;5028077;28;20233;-80
2021/09/20 03:15:27;;;;;;;4.30;3.93;;;;;;;11.07;67.68;99343.44;5041242;23;20278;-81
2021/09/20 03:18:16;;;;;;;4.20;3.77;;;;;;;11.08;68.06;99351.28;5049157;28;20241;-80
2021/09/20 03:21:19;;;;;;;4.20;3.80;;;;;;;11.05;68.11;99365.16;5029332;28;20238;-80
2021/09/20 03:23:55;;;;;;;4.07;3.67;;;;;;;10.98;68.21;99351.00;5029371;28;20245;-81
2021/09/20 03:26:34;;;;;;;4.40;4.00;;;;;;;11.11;67.40;99358.84;5029072;28;20214;-80
2021/09/20 03:29:09;;;;;;;3.90;3.60;;;;;;;11.15;66.99;99353.88;5028455;28;20230;-80
2021/09/20 03:31:56;;;;;;;3.90;3.50;;;;;;;11.19;66.99;99352.34;5028338;28;20230;-81
2021/09/20 03:34:56;;;;;;;5.93;3.20;;;;;;;11.24;66.86;99347.94;5027945;28;20231;-81
2021/09/20 03:37:35;;;;;;;4.10;3.70;;;;;;;11.18;66.91;99351.53;5029375;28;20191;-80
2021/09/20 03:40:28;;;;;;;4.30;3.90;;;;;;;11.27;66.81;99354.69;5028959;28;20285;-81
2021/09/20 03:43:15;;;;;;;4.30;3.90;;;;;;;11.17;67.43;99355.25;5030000;28;20618;-80
2021/09/20 03:46:03;;;;;;;3.93;3.50;;;;;;;11.15;67.38;99353.88;5028752;28;20265;-80
2021/09/20 03:48:47;;;;;;;3.63;3.33;;;;;;;11.13;67.63;99359.44;5179681;22;20299;-81
2021/09/20 03:51:50;;;;;;;4.27;3.30;;;;;;;11.25;67.39;99370.19;5106574;28;20205;-81
2021/09/20 03:54:45;;;;;;;4.47;3.37;;;;;;;11.26;67.48;99366.47;5104441;28;20246;-81
2021/09/20 03:57:30;;;;;;;4.03;3.40;;;;;;;11.36;67.31;99367.53;5088773;28;20228;-81
2021/09/20 04:00:20;;;;;;;6.03;4.00;;;;;;;11.36;67.39;99358.69;5087671;28;20244;-80
2021/09/20 04:02:54;;;;;;;5.83;3.77;;;;;;;11.45;67.29;99365.34;5092833;23;20236;-81
2021/09/20 04:05:49;;;;;;;5.33;3.83;;;;;;;11.42;67.33;99373.84;5074351;28;20220;-80
2021/09/20 04:08:40;;;;;;;4.63;3.67;;;;;;;11.42;67.36;99369.31;5157681;22;20283;-81
2021/09/20 04:11:15;;;;;;;5.47;3.60;;;;;;;11.48;67.73;99386.31;5068073;28;20228;-80
2021/09/20 04:14:15;;;;;;;3.93;3.60;;;;;;;11.56;67.77;99386.00;5087166;28;20209;-80
2021/09/20 04:17:05;;;;;;;3.97;3.67;;;;;;;11.49;67.47;99378.06;5065519;28;20208;-80
2021/09/20 04:19:39;;;;;;;4.50;4.10;;;;;;;11.57;67.80;99402.94;5088268;28;20640;-80
2021/09/20 04:22:21;;;;;;;4.60;4.20;;;;;;;11.57;67.55;99392.97;5070540;28;20288;-80
2021/09/20 04:25:17;;;;;;;3.90;3.60;;;;;;;11.60;67.57;99402.44;5088684;28;20187;-80
2021/09/20 04:28:17;;;;;;;4.00;3.70;;;;;;;11.62;67.34;99395.78;5087540;28;20314;-80
2021/09/20 04:31:08;;;;;;;5.23;3.53;;;;;;;11.65;67.43;99407.94;5087610;28;20276;-81
2021/09/20 04:33:52;;;;;;;4.07;3.67;;;;;;;11.73;67.09;99416.50;5087798;28;20179;-81
2021/09/20 04:36:55;;;;;;;4.13;3.73;;;;;;;11.64;66.95;99403.63;5086897;28;20634;-80
2021/09/20 04:39:41;;;;;;;4.20;3.80;;;;;;;11.71;67.00;99415.06;5088469;28;20236;-81
2021/09/20 04:42:38;;;;;;;4.47;3.87;;;;;;;11.65;67.24;99419.50;5087947;28;20225;-81
2021/09/20 04:45:35;;;;;;;5.03;4.10;;;;;;;11.68;67.44;99415.53;5086277;28;20729;-80
2021/09/20 04:48:16;;;;;;;5.07;3.87;;;;;;;11.82;66.99;99411.59;5087340;28;20633;-80
2021/09/20 04:53:52;;;;;;;4.77;4.13;;;;;;;12.03;66.41;99419.09;5001672;28;20244;-80
2021/09/20 04:56:48;;;;;;;6.03;3.90;;;;;;;12.08;66.18;99416.53;4989700;28;20585;-80
2021/09/20 04:59:48;;;;;;;4.33;3.93;;;;;;;12.01;66.07;99393.50;4988656;28;20631;-80
2021/09/20 05:02:25;;;;;;;5.47;3.87;;;;;;;12.22;65.85;99420.59;4988870;28;20224;-80
2021/09/20 05:05:06;;;;;;;4.33;3.93;;;;;;;12.22;65.15;99423.28;4989124;28;20196;-81
2021/09/20 05:07:46;;;;;;;4.20;3.80;;;;;;;12.14;65.75;99404.81;4988804;28;20255;-80
2021/09/20 05:10:27;;;;;;;5.10;3.90;;;;;;;12.26;65.84;99421.75;4987891;28;20188;-80
2021/09/20 05:13:23;;;;;;;5.03;3.90;;;;;;;12.30;65.50;99420.22;4989151;28;20223;-80
2021/09/20 05:16:10;;;;;;;4.57;4.07;;;;;;;12.31;65.20;99423.72;4988520;28;20216;-81
2021/09/20 05:19:10;;;;;;;4.43;4.03;;;;;;;12.42;65.30;99422.88;4988693;28;20219;-81
2021/09/20 05:21:43;;;;;;;4.53;4.13;;;;;;;12.32;65.06;99410.06;4988927;28;20220;-80
2021/09/20 05:24:46;;;;;;;4.60;4.20;;;;;;;12.62;64.60;99428.69;5014356;23;20240;-80
2021/09/20 05:27:36;;;;;;;4.30;3.83;;;;;;;12.56;64.94;99440.38;5047720;28;20182;-81
2021/09/20 05:30:20;;;;;;;4.50;4.10;;;;;;;12.56;64.96;99442.25;5044798;23;20234;-81
2021/09/20 05:33:13;;;;;;;4.60;3.97;;;;;;;12.62;64.94;99435.94;5048030;28;20190;-80
2021/09/20 05:35:54;;;;;;;4.77;3.73;;;;;;;12.73;64.65;99444.00;5033877;28;20234;-80
2021/09/20 05:38:40;;;;;;;4.40;4.00;;;;;;;12.84;64.00;99450.34;5021848;28;20230;-80
2021/09/20 05:41:16;;;;;;;4.93;4.10;;;;;;;12.74;64.35;99442.91;5027374;28;20297;-80
2021/09/20 05:43:56;;;;;;;4.53;4.00;;;;;;;12.92;63.64;99441.13;5027057;28;20211;-81
2021/09/20 05:46:38;;;;;;;4.70;4.23;;;;;;;12.94;63.70;99458.63;5027423;28;20230;-80
2021/09/20 05:49:17;;;;;;;4.97;4.10;;;;;;;12.90;63.87;99460.16;5026668;28;20649;-80
2021/09/20 05:51:58;;;;;;;5.00;3.93;;;;;;;12.95;63.23;99459.47;5026747;28;20226;-81
2021/09/20 05:55:12;;;;;;;4.23;3.83;;;;;;;12.95;63.31;99475.59;5027196;28;20214;-80
2021/09/20 05:58:05;;;;;;;8.20;4.23;;;;;;;12.93;63.49;99483.06;5024609;28;20237;-81
2021/09/20 06:00:56;;;;;;;6.37;3.90;;;;;;;12.91;62.95;99480.63;5027113;28;20231;-81
2021/09/20 06:04:01;;;;;;;5.73;4.20;;;;;;;13.06;62.42;99474.75;5047216;23;20253;-81
2021/09/20 06:06:48;;;;;;;6.27;3.80;;;;;;;12.97;62.68;99460.84;5030897;28;20222;-81
2021/09/20 06:09:22;;;;;;;4.50;4.10;;;;;;;13.13;62.14;99484.34;5044600;28;20217;-81
2021/09/20 06:11:57;;;;;;;4.00;3.70;;;;;;;13.03;62.99;99486.78;5044788;28;20555;-81
2021/09/20 06:14:33;;;;;;;4.30;3.90;;;;;;;13.20;62.59;99487.69;5049178;28;20232;-82
2021/09/20 06:17:13;;;;;;;4.20;3.63;;;;;;;13.13;62.99;99483.50;5029532;28;20197;-82
2021/09/20 06:19:50;;;;;;;5.13;3.80;;;;;;;13.27;62.04;99502.88;5014722;28;20233;-82
2021/09/20 06:22:56;;;;;;;4.90;4.07;;;;;;;13.23;62.07;99499.84;5031479;28;20287;-82
2021/09/20 06:25:47;;;;;;;5.00;3.77;;;;;;;13.32;62.55;99506.47;5032822;28;20227;-82
2021/09/20 06:29:14;;;;;;;4.50;3.97;;;;;;;13.32;62.46;99511.88;5033853;28;20187;-82
2021/09/20 06:32:01;;;;;;;6.23;4.10;;;;;;;13.31;62.48;99515.59;5036855;28;20240;-82
2021/09/20 06:35:03;;;;;;;4.37;3.97;;;;;;;13.41;62.49;99520.38;5052926;28;20245;-82
2021/09/20 06:38:20;;;;;;;4.63;3.80;;;;;;;13.33;62.09;99516.19;5053628;28;20226;-81
2021/09/20 06:41:03;;;;;;;4.23;3.70;;;;;;;13.40;61.73;99516.84;5053494;28;20238;-82
2021/09/20 06:43:37;;;;;;;4.97;4.30;;;;;;;13.52;61.54;99525.72;5065460;23;20288;-82
2021/09/20 06:46:51;;;;;;;4.40;3.97;;;;;;;13.42;61.52;99524.69;5071114;28;20220;-83
2021/09/20 06:49:58;;;;;;;4.13;3.73;;;;;;;13.44;61.17;99522.56;5073329;28;20244;-82
2021/09/20 06:52:31;;;;;;;4.30;3.90;;;;;;;13.48;61.12;99529.13;5067441;28;20234;-81
2021/09/20 06:55:33;;;;;;;4.27;3.87;;;;;;;13.44;61.69;99526.06;5054654;28;20265;-82
2021/09/20 06:58:18;;;;;;;4.30;3.90;;;;;;;13.52;61.29;99536.47;5072059;28;20558;-82
2021/09/20 07:00:45;;;;;;;4.07;3.67;;;;;;;13.50;61.31;99537.75;5065030;28;20249;-82
2021/09/20 07:03:17;;;;;;;4.43;4.03;;;;;;;13.54;61.29;99536.22;5091662;28;20224;-82
2021/09/20 07:05:52;;;;;;;4.77;3.97;;;;;;;13.63;61.67;99543.66;5092889;28;20209;-82
2021/09/20 07:08:22;;;;;;;5.17;4.00;;;;;;;13.68;61.07;99530.28;5075424;28;20220;-82
2021/09/20 07:10:51;;;;;;;5.50;3.83;;;;;;;13.83;60.72;99535.13;5059633;28;20236;-82
2021/09/20 07:13:42;;;;;;;4.67;4.13;;;;;;;13.86;60.61;99536.53;5093186;28;20193;-82
2021/09/20 07:16:16;;;;;;;5.63;4.30;;;;;;;13.83;60.46;99534.31;5075514;28;20627;-82
2021/09/20 07:18:46;;;;;;;5.00;4.00;;;;;;;13.89;60.11;99533.34;5093252;28;20216;-82
2021/09/20 07:21:31;;;;;;;4.63;3.97;;;;;;;13.97;60.43;99547.25;5058276;23;20306;-82
2021/09/20 07:24:17;;;;;;;4.83;4.30;;;;;;;13.98;60.36;99551.56;5051743;28;20253;-83
2021/09/20 07:27:00;;;;;;;4.20;3.80;;;;;;;14.02;60.22;99559.97;5050372;28;20296;-82
2021/09/20 07:29:32;;;;;;;4.87;4.37;;;;;;;13.84;59.98;99555.63;5044050;23;20228;-82
2021/09/20 07:32:05;;;;;;;4.50;4.10;;;;;;;13.94;59.53;99555.00;5062358;23;20234;-82
2021/09/20 07:34:59;;;;;;;4.67;4.27;;;;;;;14.20;59.82;99561.63;5071174;28;20228;-82
2021/09/20 07:37:59;;;;;;;4.87;4.03;;;;;;;14.05;60.00;99549.53;5070459;28;20229;-82
2021/09/20 07:40:28;;;;;;;4.63;4.00;;;;;;;14.11;59.74;99555.81;5072701;28;20275;-82
2021/09/20 07:42:58;;;;;;;4.27;3.87;;;;;;;14.19;59.72;99551.88;5073311;28;20232;-81
2021/09/20 07:45:38;;;;;;;5.03;3.83;;;;;;;13.94;60.00;99552.31;5073742;28;20248;-82
2021/09/20 07:48:29;;;;;;;4.43;3.77;;;;;;;14.33;58.94;99551.31;5054627;28;20225;-80
2021/09/20 07:51:00;;;;;;;4.33;3.93;;;;;;;14.73;57.80;99564.66;5073706;28;20240;-81
2021/09/20 07:53:43;;;;;;;4.10;3.70;;;;;;;14.76;57.58;99557.91;5074839;28;20213;-81
2021/09/20 07:56:24;;;;;;;5.30;4.23;;;;;;;14.88;56.78;99553.25;5072168;28;20181;-81
2021/09/20 07:59:13;;;;;;;7.17;4.50;;;;;;;15.26;56.83;99539.69;5071143;28;20243;-80
2021/09/20 08:01:55;;;;;;;5.40;4.60;;;;;;;15.31;55.49;99552.44;5037556;28;20254;-81
2021/09/20 08:05:06;;;;;;;4.80;4.40;;;;;;;15.68;54.86;99556.13;5052622;28;20188;-81
2021/09/20 08:07:45;;;;;;;4.60;4.20;;;;;;;16.21;54.29;99551.75;5034171;28;20198;-81
2021/09/20 08:10:20;;;;;;;5.73;5.23;;;;;;;16.25;52.14;99561.78;5051388;28;20211;-81
2021/09/20 08:12:54;;;;;;;7.07;4.97;;;;;;;16.46;52.08;99553.84;5034161;28;20241;-81
2021/09/20 08:16:00;;;;;;;5.70;4.90;;;;;;;16.36;51.55;99562.69;5051742;28;20243;-81
2021/09/20 08:18:55;;;;;;;6.70;5.00;;;;;;;15.67;53.54;99567.19;5053200;28;20281;-81
2021/09/20 08:21:39;;;;;;;5.90;5.30;;;;;;;16.19;51.68;99578.25;5048758;28;20245;-82
2021/09/20 08:24:38;;;;;;;5.47;4.93;;;;;;;16.43;51.69;99560.56;5050458;22;20236;-81
2021/09/20 08:27:42;;;;;;;5.10;4.60;;;;;;;16.54;51.42;99583.91;5005897;28;20200;-81
2021/09/20 08:30:31;;;;;;;5.93;5.10;;;;;;;16.54;51.13;99583.91;5027650;28;20307;-81
2021/09/20 08:33:09;;;;;;;5.33;4.50;;;;;;;16.47;50.96;99574.41;5016347;28;20232;-80
2021/09/20 08:36:18;;;;;;;5.50;4.97;;;;;;;16.76;49.75;99572.19;5030536;28;20224;-81
2021/09/20 08:39:16;;;;;;;5.40;4.90;;;;;;;17.17;49.57;99591.09;4970021;28;20245;-85
2021/09/20 08:42:07;;;;;;;5.07;4.57;;;;;;;16.78;49.79;99578.16;4963024;28;20236;-83
2021/09/20 08:45:01;;;;;;;6.10;4.90;;;;;;;16.90;50.38;99590.41;4962395;28;20236;-79
2021/09/20 08:48:03;;;;;;;5.20;4.70;;;;;;;16.84;49.70;99593.34;4985383;23;20226;-82
2021/09/20 08:50:54;;;;;;;6.37;4.53;;;;;;;17.27;49.72;99598.44;5014846;28;20618;-89
2021/09/20 08:53:35;;;;;;;5.20;4.70;;;;;;;17.29;48.76;99593.59;4996385;28;20250;-88
2021/09/20 08:56:20;;;;;;;5.47;4.43;;;;;;;17.21;48.79;99596.81;4983318;28;20233;-83
2021/09/20 08:59:13;;;;;;;5.23;4.73;;;;;;;17.46;47.96;99596.09;5001528;28;20247;-89
2021/09/20 09:01:55;;;;;;;5.03;4.53;;;;;;;17.25;48.82;99603.31;4983847;28;20530;-84
2021/09/20 09:04:31;;;;;;;4.60;4.20;;;;;;;17.73;48.08;99602.16;4995020;28;20250;-87
2021/09/20 09:07:09;;;;;;;6.37;4.70;;;;;;;17.77;47.42;99606.00;4943340;28;20231;-82
2021/09/20 09:09:38;;;;;;;6.50;4.80;;;;;;;18.09;46.95;99610.38;4959421;28;20669;-90
2021/09/20 09:12:15;;;;;;;5.37;4.87;;;;;;;17.83;46.97;99607.63;4962095;28;20576;-91
2021/09/20 09:14:55;;;;;;;5.30;4.80;;;;;;;17.79;47.52;99608.41;4995859;28;20239;-86
2021/09/20 09:17:27;;;;;;;5.73;4.67;;;;;;;17.72;47.24;99616.00;4962504;28;20581;-87
2021/09/20 09:19:56;;;;;;;5.80;4.50;;;;;;;17.53;48.23;99611.03;4974419;28;20235;-87
2021/09/20 09:22:26;;;;;;;6.70;4.50;;;;;;;17.65;47.30;99602.69;4997444;28;20253;-90
2021/09/20 09:24:59;;;;;;;4.93;4.30;;;;;;;17.99;46.57;99614.72;4981665;28;20233;-91
2021/09/20 09:27:26;;;;;;;5.67;4.13;;;;;;;17.80;45.76;99616.28;4998004;28;20241;-88
2021/09/20 09:30:17;;;;;;;5.63;4.90;;;;;;;17.61;46.56;99601.59;5000120;28;20310;-89
2021/09/20 09:32:45;;;;;;;6.90;4.20;;;;;;;17.64;47.32;99613.81;4994162;28;20234;-89
2021/09/20 09:35:14;;;;;;;6.30;4.40;;;;;;;17.91;46.98;99603.59;4978244;28;20239;-88
2021/09/20 09:37:44;;;;;;;4.70;4.20;;;;;;;18.19;46.84;99607.69;4978237;28;20228;-86
2021/09/20 09:40:22;;;;;;;4.27;3.87;;;;;;;18.11;45.07;99611.72;4977838;28;20227;-93
2021/09/20 09:42:51;;;;;;;5.23;4.20;;;;;;;18.41;44.90;99605.53;4978764;28;20250;-86
2021/09/20 09:45:33;;;;;;;5.43;4.07;;;;;;;18.31;44.45;99614.47;4978575;28;20236;-91
2021/09/20 09:48:19;;;;;;;4.77;4.27;;;;;;;18.29;44.04;99621.28;4994306;28;20634;-89
2021/09/20 09:50:48;;;;;;;6.57;4.50;;;;;;;18.48;44.03;99619.63;4978060;28;20227;-91
2021/09/20 09:53:23;;;;;;;4.70;4.20;;;;;;;18.47;44.61;99615.31;4978459;28;20705;-91
2021/09/20 09:55:50;;;;;;;4.30;3.90;;;;;;;18.48;44.02;99603.34;4995483;28;20227;-85
2021/09/20 09:58:19;;;;;;;6.20;4.37;;;;;;;18.48;43.32;99615.00;4980932;28;20227;-91
2021/09/20 10:00:46;;;;;;;5.27;4.23;;;;;;;18.92;43.43;99612.56;4998114;28;20238;-90
2021/09/20 10:03:13;;;;;;;4.90;3.90;;;;;;;19.06;43.10;99614.72;4979352;28;20258;-89
2021/09/20 10:05:55;;;;;;;4.87;3.90;;;;;;;19.77;41.79;99612.56;4979013;28;20593;-90
2021/09/20 10:08:24;;;;;;;4.80;4.40;;;;;;;19.72;40.53;99602.53;4970413;28;20523;-86
2021/09/20 10:10:51;;;;;;;4.60;4.20;;;;;;;19.93;40.39;99605.94;5008624;28;20231;-89
2021/09/20 10:13:20;;;;;;;4.23;3.83;;;;;;;19.79;41.30;99600.31;4978600;28;20220;-83
2021/09/20 10:15:50;;;;;;;5.70;4.07;;;;;;;20.11;40.24;99610.72;4998505;28;20247;-88
2021/09/20 10:18:22;;;;;;;4.63;4.23;;;;;;;20.35;39.50;99604.59;4971147;28;20219;-86
2021/09/20 10:20:53;;;;;;;4.27;3.87;;;;;;;19.89;39.44;99610.31;4971431;28;20234;-89
2021/09/20 10:23:26;;;;;;;4.53;4.03;;;;;;;20.00;39.89;99608.38;5002443;28;20223;-90
2021/09/20 10:25:56;;;;;;;3.97;3.67;;;;;;;19.35;41.00;99602.97;4980087;28;20238;-90
2021/09/20 10:28:24;;;;;;;3.70;3.40;;;;;;;19.19;41.14;99601.38;4964223;28;20231;-87
2021/09/20 10:30:53;;;;;;;4.03;3.50;;;;;;;19.08;41.08;99617.97;4981245;28;20228;-91
2021/09/20 10:33:26;;;;;;;4.13;3.73;;;;;;;18.80;40.85;99612.03;4964535;28;20219;-88
2021/09/20 10:35:57;;;;;;;3.73;3.43;;;;;;;19.19;40.87;99609.50;4977927;28;20222;-93
2021/09/20 10:38:30;;;;;;;3.43;3.13;;;;;;;19.72;38.29;99609.88;4993952;28;20255;-88
2021/09/20 10:41:11;;;;;;;4.30;3.90;;;;;;;19.33;39.69;99609.75;4972495;28;20505;-86
2021/09/20 10:43:49;;;;;;;4.43;3.60;;;;;;;19.47;40.18;99599.13;4987783;28;20326;-89
2021/09/20 10:46:38;;;;;;;4.00;3.67;;;;;;;20.29;39.24;99611.16;4957258;28;20223;-90
2021/09/20 10:49:22;;;;;;;4.20;3.80;;;;;;;20.50;38.00;99599.03;4996687;28;20234;-86
2021/09/20 10:52:08;;;;;;;4.43;3.40;;;;;;;20.52;37.56;99599.56;4979835;28;20246;-86
2021/09/20 10:54:39;;;;;;;3.47;3.03;;;;;;;20.44;38.21;99600.97;4983912;28;20529;-91
2021/09/20 10:57:13;;;;;;;3.83;3.53;;;;;;;20.48;37.91;99593.09;5000286;28;20234;-91
2021/09/20 10:59:42;;;;;;;3.80;3.50;;;;;;;20.24;38.10;99598.41;4984634;28;20223;-91
2021/09/20 11:02:21;;;;;;;3.73;3.30;;;;;;;20.18;38.68;99596.81;4970626;28;20231;-90
2021/09/20 11:05:07;;;;;;;4.37;3.40;;;;;;;20.82;37.85;99591.09;4962445;28;20640;-89
2021/09/20 11:07:44;;;;;;;3.50;3.20;;;;;;;20.31;38.20;99596.19;4975279;28;20231;-92
2021/09/20 11:10:14;;;;;;;3.47;3.20;;;;;;;20.48;38.23;99596.59;4964527;28;20238;-92
2021/09/20 11:13:05;;;;;;;3.97;3.10;;;;;;;19.89;39.61;99598.63;4997240;28;20231;-92
2021/09/20 11:15:42;;;;;;;3.07;2.77;;;;;;;20.06;39.32;99596.38;4981361;28;20227;-89
2021/09/20 11:18:34;;;;;;;4.83;3.23;;;;;;;20.19;38.77;99584.84;4996400;28;20303;-89
2021/09/20 11:21:07;;;;;;;3.97;3.57;;;;;;;19.77;39.43;99575.34;4997103;28;20235;-92
2021/09/20 11:23:40;;;;;;;3.00;2.70;;;;;;;19.65;39.19;99595.78;5003293;28;20563;-91
2021/09/20 11:26:09;;;;;;;3.13;2.67;;;;;;;19.64;39.50;99594.94;4983859;28;20238;-89
2021/09/20 11:28:45;;;;;;;2.90;2.70;;;;;;;19.69;38.93;99594.94;4968220;28;20231;-88
2021/09/20 11:31:20;;;;;;;3.20;2.90;;;;;;;19.64;38.86;99584.09;5000626;28;20235;-90
2021/09/20 11:33:51;;;;;;;3.07;2.77;;;;;;;19.59;38.23;99577.88;4984811;28;20230;-85
2021/09/20 11:36:33;;;;;;;3.80;3.30;;;;;;;19.34;39.04;99581.50;4982768;28;20587;-91
2021/09/20 11:39:17;;;;;;;3.47;3.17;;;;;;;19.27;39.22;99597.28;5015928;28;20254;-86
2021/09/20 11:42:00;;;;;;;4.23;3.80;;;;;;;18.86;39.84;99588.41;4983750;28;20623;-85
2021/09/20 11:44:30;;;;;;;4.33;3.60;;;;;;;19.50;40.08;99591.25;5000322;28;20227;-91
2021/09/20 11:47:00;;;;;;;4.17;3.53;;;;;;;20.02;37.96;99584.41;4983870;28;20230;-91
2021/09/20 11:49:28;;;;;;;4.03;3.40;;;;;;;20.48;37.67;99590.34;4991834;28;20299;-89
2021/09/20 11:52:01;;;;;;;3.40;3.10;;;;;;;20.95;37.30;99582.25;5003184;28;20320;-90
2021/09/20 11:54:36;;;;;;;3.70;3.33;;;;;;;21.25;35.93;99594.78;5020228;28;20591;-89
2021/09/20 11:57:12;;;;;;;3.47;3.17;;;;;;;21.08;35.84;99586.22;5003218;28;20230;-84
2021/09/20 11:59:41;;;;;;;5.63;3.63;;;;;;;21.51;36.32;99579.72;4986990;28;20226;-87
2021/09/20 12:02:29;;;;;;;3.77;3.33;;;;;;;21.48;35.74;99585.75;5008524;28;20227;-89
2021/09/20 12:04:59;;;;;;;3.10;2.80;;;;;;;21.69;35.59;99583.59;5015458;28;20671;-89
2021/09/20 12:07:31;;;;;;;5.60;3.20;;;;;;;21.41;36.33;99588.03;5015514;28;20227;-86
2021/09/20 12:10:03;;;;;;;3.70;3.33;;;;;;;20.62;36.39;99572.28;4983978;28;20228;-88
2021/09/20 12:12:40;;;;;;;5.63;3.00;;;;;;;20.81;37.04;99577.81;4983144;28;20688;-87
2021/09/20 12:15:12;;;;;;;4.07;3.23;;;;;;;20.74;37.65;99583.56;5015308;28;20710;-88
2021/09/20 12:17:47;;;;;;;4.03;3.47;;;;;;;20.36;36.70;99574.38;4983299;28;20230;-88
2021/09/20 12:20:24;;;;;;;3.37;3.07;;;;;;;20.23;37.32;99583.19;5014231;28;20223;-86
2021/09/20 12:22:59;;;;;;;4.37;3.07;;;;;;;19.92;38.24;99582.59;4979330;28;20673;-87
2021/09/20 12:25:44;;;;;;;3.13;2.83;;;;;;;20.50;37.92;99591.69;4979519;28;20311;-85
2021/09/20 12:28:32;;;;;;;3.50;3.20;;;;;;;20.34;37.79;99594.84;4993866;28;20245;-87
2021/09/20 12:31:10;;;;;;;3.63;3.30;;;;;;;20.57;37.61;99592.19;4964465;28;20282;-87
2021/09/20 12:33:58;;;;;;;3.03;2.83;;;;;;;20.52;37.74;99588.69;4979898;28;20573;-88
2021/09/20 12:36:32;;;;;;;4.43;3.20;;;;;;;20.71;36.93;99589.59;4998465;28;20228;-85
2021/09/20 12:39:11;;;;;;;3.77;3.00;;;;;;;20.40;37.22;99589.03;5015060;28;20281;-90
2021/09/20 12:41:45;;;;;;;4.07;3.30;;;;;;;20.67;37.62;99598.63;4999040;28;20258;-87
2021/09/20 12:44:32;;;;;;;9.37;3.20;;;;;;;20.11;38.19;99601.78;4982844;28;20251;-87
2021/09/20 12:47:17;;;;;;;3.83;3.10;;;;;;;20.52;37.71;99602.28;4982625;28;20635;-86
2021/09/20 12:49:59;;;;;;;4.30;3.20;;;;;;;20.08;38.18;99592.25;4975874;28;20223;-85
2021/09/20 12:52:31;;;;;;;3.47;3.17;;;;;;;20.02;38.40;99596.09;4960010;28;20224;-90